createdAt,value
2023-05-17T00:04:17.406Z,99220.16
2023-05-17T00:07:19.831Z,99231.46
2023-05-17T00:10:22.019Z,99229.85
2023-05-17T00:13:24.426Z,99232.10
2023-05-17T00:16:27.370Z,99233.45
2023-05-17T00:19:29.682Z,99233.68
2023-05-17T00:22:32.692Z,99240.67
2023-05-17T00:25:35.220Z,99243.52
2023-05-17T00:28:37.596Z,99244.02
2023-05-17T00:31:39.911Z,99243.27
2023-05-17T00:34:42.310Z,99240.07
2023-05-17T00:37:48.245Z,99243.15
2023-05-17T00:40:51.295Z,99247.30
2023-05-17T00:43:53.778Z,99244.96
2023-05-17T00:46:56.251Z,99247.81
2023-05-17T00:49:58.524Z,99248.37
2023-05-17T00:53:01.307Z,99247.61
2023-05-17T00:56:04.501Z,99250.36
2023-05-17T00:59:08.731Z,99248.95
2023-05-17T01:02:12.104Z,99250.79
2023-05-17T01:05:16.408Z,99251.79
2023-05-17T01:08:18.614Z,99252.82
2023-05-17T01:11:50.815Z,99254.30
2023-05-17T01:15:08.009Z,99248.80
2023-05-17T01:18:17.199Z,99248.20
2023-05-17T01:21:56.147Z,99243.63
2023-05-17T01:25:10.801Z,99242.77
2023-05-17T01:28:15.370Z,99242.48
2023-05-17T02:04:17.543Z,99240.99
2023-05-17T02:07:20.035Z,99243.15
2023-05-17T02:10:22.625Z,99241.81
2023-05-17T02:13:25.052Z,99246.70
2023-05-17T02:16:27.257Z,99248.48
2023-05-17T02:19:29.660Z,99249.91
2023-05-17T02:22:32.048Z,99250.70
2023-05-17T02:25:34.383Z,99250.16
2023-05-17T02:28:36.754Z,99250.40
2023-05-17T02:31:39.146Z,99255.83
2023-05-17T02:34:41.452Z,99258.08
2023-05-17T02:37:43.963Z,99259.36
2023-05-17T02:40:48.290Z,99260.56
2023-05-17T02:43:51.033Z,99263.52
2023-05-17T02:46:53.341Z,99267.97
2023-05-17T02:49:55.645Z,99271.73
2023-05-17T02:52:57.834Z,99277.38
2023-05-17T02:56:00.173Z,99271.14
2023-05-17T02:59:02.554Z,99273.58
2023-05-17T03:02:05.220Z,99274.35
2023-05-17T03:05:08.511Z,99276.47
2023-05-17T03:08:14.025Z,99280.83
2023-05-17T03:11:16.597Z,99275.54
2023-05-17T03:14:19.121Z,99273.94
2023-05-17T03:17:21.699Z,99275.74
2023-05-17T03:20:24.822Z,99277.44
2023-05-17T03:23:27.070Z,99277.70
2023-05-17T03:30:25.508Z,99283.03
2023-05-17T03:33:28.364Z,99286.69
2023-05-17T03:36:31.111Z,99288.73
2023-05-17T03:39:33.957Z,99290.11
2023-05-17T03:42:36.940Z,99292.48
2023-05-17T03:45:39.597Z,99292.23
2023-05-17T03:48:41.731Z,99297.21
2023-05-17T03:51:45.539Z,99304.42
2023-05-17T03:54:48.392Z,99305.05
2023-05-17T03:57:51.633Z,99310.02
2023-05-17T04:04:20.742Z,99322.09
2023-05-17T04:07:23.283Z,99324.84
2023-05-17T04:10:25.699Z,99325.38
2023-05-17T04:13:27.941Z,99331.08
2023-05-17T04:16:30.117Z,99330.50
2023-05-17T04:19:32.768Z,99332.35
2023-05-17T04:22:37.321Z,99333.73
2023-05-17T04:25:40.022Z,99334.78
2023-05-17T04:28:43.914Z,99336.54
2023-05-17T04:31:49.330Z,99340.80
2023-05-17T04:34:52.678Z,99341.58
2023-05-17T04:37:55.155Z,99346.73
2023-05-17T04:41:05.682Z,99347.67
2023-05-17T04:44:09.627Z,99352.30
2023-05-17T04:47:12.701Z,99352.17
2023-05-17T04:50:15.080Z,99355.83
2023-05-17T04:53:17.766Z,99360.85
2023-05-17T04:56:20.548Z,99357.83
2023-05-17T04:59:22.906Z,99356.04
2023-05-17T05:02:26.266Z,99358.61
2023-05-17T05:05:29.207Z,99357.88
2023-05-17T05:08:34.288Z,99361.01
2023-05-17T05:11:36.940Z,99362.13
2023-05-17T05:14:39.169Z,99364.90
2023-05-17T05:17:42.145Z,99363.66
2023-05-17T05:20:44.483Z,99367.27
2023-05-17T05:23:46.669Z,99372.27
2023-05-17T05:26:49.841Z,99373.59
2023-05-17T05:33:43.292Z,99382.12
2023-05-17T05:36:46.959Z,99381.23
2023-05-17T05:39:51.686Z,99384.83
2023-05-17T05:42:54.653Z,99388.83
2023-05-17T05:45:56.925Z,99393.00
2023-05-17T05:48:59.034Z,99390.08
2023-05-17T05:52:02.690Z,99384.46
2023-05-17T05:55:06.025Z,99386.84
2023-05-17T05:58:09.393Z,99391.77
2023-05-17T06:04:22.731Z,99397.64
2023-05-17T06:07:32.193Z,99396.41
2023-05-17T06:10:34.298Z,99398.32
2023-05-17T06:13:36.535Z,99400.14
2023-05-17T06:16:38.788Z,99402.83
2023-05-17T06:19:40.948Z,99409.40
2023-05-17T06:22:44.203Z,99409.24
2023-05-17T06:25:46.262Z,99408.14
2023-05-17T06:35:24.664Z,99418.95
2023-05-17T06:38:27.203Z,99422.31
2023-05-17T06:41:29.705Z,99421.86
2023-05-17T06:44:32.405Z,99421.83
2023-05-17T06:47:35.543Z,99422.35
2023-05-17T06:50:38.313Z,99419.84
2023-05-17T06:53:40.706Z,99422.31
2023-05-17T06:56:43.432Z,99422.80
2023-05-17T06:59:46.124Z,99420.16
2023-05-17T07:02:49.104Z,99416.70
2023-05-17T07:05:51.643Z,99416.06
2023-05-17T07:08:56.793Z,99413.20
2023-05-17T07:11:59.070Z,99412.65
2023-05-17T07:15:03.512Z,99415.58
2023-05-17T07:18:06.283Z,99412.88
2023-05-17T07:21:09.110Z,99417.30
2023-05-17T07:24:11.434Z,99416.92
2023-05-17T07:27:13.488Z,99423.69
2023-05-17T07:30:15.871Z,99425.45
2023-05-17T07:33:18.058Z,99424.44
2023-05-17T07:36:20.764Z,99431.00
2023-05-17T07:39:26.071Z,99429.95
2023-05-17T07:42:28.513Z,99423.33
2023-05-17T07:45:31.603Z,99425.61
2023-05-17T07:48:34.406Z,99424.98
2023-05-17T07:51:36.899Z,99426.35
2023-05-17T07:54:39.428Z,99427.81
2023-05-17T07:57:41.693Z,99430.80
2023-05-17T08:00:44.118Z,99429.77
2023-05-17T08:03:49.155Z,99429.65
2023-05-17T08:06:51.537Z,99427.67
2023-05-17T08:09:53.847Z,99427.63
2023-05-17T08:12:56.215Z,99436.27
2023-05-17T08:16:12.704Z,99435.39
2023-05-17T08:19:18.996Z,99441.77
2023-05-17T08:22:21.429Z,99442.00
2023-05-17T08:25:23.748Z,99443.99
2023-05-17T08:28:25.870Z,99443.13
2023-05-17T08:31:27.998Z,99444.73
2023-05-17T08:34:30.259Z,99453.67
2023-05-17T08:37:33.960Z,99456.47
2023-05-17T08:40:36.344Z,99452.27
2023-05-17T08:43:39.764Z,99451.38
2023-05-17T08:46:44.658Z,99452.27
2023-05-17T08:49:48.277Z,99455.19
2023-05-17T08:52:51.828Z,99452.90
2023-05-17T08:56:00.689Z,99451.00
2023-05-17T08:59:06.009Z,99451.19
2023-05-17T09:02:08.859Z,99453.38
2023-05-17T09:05:11.583Z,99454.41
2023-05-17T09:08:14.589Z,99451.33
2023-05-17T09:11:25.673Z,99449.34
2023-05-17T09:14:35.435Z,99452.84
2023-05-17T09:17:38.651Z,99451.23
2023-05-17T09:20:42.274Z,99449.39
2023-05-17T09:24:01.847Z,99442.73
2023-05-17T09:27:08.574Z,99446.80
2023-05-17T09:30:12.007Z,99441.39
2023-05-17T09:33:17.647Z,99448.05
2023-05-17T09:36:23.520Z,99445.23
2023-05-17T09:39:26.060Z,99446.09
2023-05-17T09:42:28.423Z,99445.73
2023-05-17T09:45:33.047Z,99444.14
2023-05-17T09:48:38.953Z,99448.35
2023-05-17T09:51:43.455Z,99447.90
2023-05-17T09:54:53.698Z,99446.37
2023-05-17T09:58:04.153Z,99444.92
2023-05-17T10:04:23.584Z,99439.72
2023-05-17T10:07:28.195Z,99439.21
2023-05-17T10:10:31.135Z,99440.11
2023-05-17T10:13:48.110Z,99443.98
2023-05-17T10:16:51.588Z,99442.14
2023-05-17T10:19:55.296Z,99437.91
2023-05-17T10:22:58.807Z,99440.29
2023-05-17T10:26:02.697Z,99440.14
2023-05-17T10:29:06.672Z,99438.27
2023-05-17T10:32:09.703Z,99434.36
2023-05-17T10:35:15.473Z,99434.60
2023-05-17T10:38:20.372Z,99438.55
2023-05-17T10:41:25.561Z,99435.89
2023-05-17T10:44:31.080Z,99440.98
2023-05-17T10:47:34.666Z,99441.12
2023-05-17T10:50:47.382Z,99439.99
2023-05-17T10:54:10.256Z,99435.65
2023-05-17T11:00:55.186Z,99430.23
2023-05-17T11:03:58.561Z,99435.39
2023-05-17T11:07:20.588Z,99437.38
2023-05-17T11:10:23.180Z,99435.46
2023-05-17T11:13:28.946Z,99431.62
2023-05-17T11:16:38.709Z,99435.09
2023-05-17T11:19:51.784Z,99433.27
2023-05-17T11:23:00.295Z,99431.83
2023-05-17T11:26:18.201Z,99426.35
2023-05-17T11:29:20.786Z,99427.48
2023-05-17T11:32:31.528Z,99432.52
2023-05-17T11:35:37.791Z,99429.38
2023-05-17T11:38:40.010Z,99427.52
2023-05-17T11:42:24.310Z,99422.41
2023-05-17T11:45:27.132Z,99416.23
2023-05-17T11:48:31.095Z,99413.27
2023-05-17T11:51:34.469Z,99417.05
2023-05-17T11:54:39.341Z,99415.23
2023-05-17T11:57:42.051Z,99413.02
2023-05-17T12:00:45.473Z,99407.88
2023-05-17T12:03:50.577Z,99408.48
2023-05-17T12:06:56.701Z,99403.19
2023-05-17T12:09:58.995Z,99397.77
2023-05-17T12:13:01.673Z,99396.19
2023-05-17T12:16:07.762Z,99399.44
2023-05-17T12:19:28.375Z,99400.22
2023-05-17T12:22:30.975Z,99397.66
2023-05-17T12:25:33.342Z,99392.52
2023-05-17T12:28:37.825Z,99396.95
2023-05-17T12:31:44.189Z,99395.58
2023-05-17T12:34:48.251Z,99392.81
2023-05-17T12:37:50.888Z,99388.39
2023-05-17T12:40:53.201Z,99386.58
2023-05-17T12:44:06.138Z,99382.61
2023-05-17T12:47:10.713Z,99380.60
2023-05-17T12:50:12.985Z,99382.80
2023-05-17T12:53:15.933Z,99380.02
2023-05-17T12:56:24.009Z,99380.48
2023-05-17T12:59:26.436Z,99379.02
2023-05-17T13:02:28.892Z,99379.21
2023-05-17T13:05:31.470Z,99378.83
2023-05-17T13:08:34.662Z,99381.17
2023-05-17T13:11:41.686Z,99379.77
2023-05-17T13:14:47.444Z,99377.11
2023-05-17T13:17:50.543Z,99376.38
2023-05-17T13:20:52.780Z,99373.92
2023-05-17T13:23:54.901Z,99371.10
2023-05-17T13:26:57.169Z,99373.98
2023-05-17T13:29:59.240Z,99374.71
2023-05-17T13:33:01.919Z,99375.04
2023-05-17T13:36:05.307Z,99374.70
2023-05-17T13:39:07.686Z,99372.48
2023-05-17T13:42:11.132Z,99371.47
2023-05-17T13:45:14.042Z,99370.55
2023-05-17T13:48:16.267Z,99367.71
2023-05-17T13:51:18.419Z,99363.86
2023-05-17T13:54:22.405Z,99362.71
2023-05-17T13:57:24.705Z,99362.67
2023-05-17T14:04:21.706Z,99350.91
2023-05-17T14:07:23.923Z,99349.80
2023-05-17T14:10:26.041Z,99349.16
2023-05-17T14:13:28.599Z,99347.33
2023-05-17T14:16:31.415Z,99349.56
2023-05-17T14:19:33.693Z,99340.71
2023-05-17T14:22:36.140Z,99337.74
2023-05-17T14:25:38.406Z,99339.11
2023-05-17T14:28:41.011Z,99340.45
2023-05-17T14:31:43.583Z,99341.59
2023-05-17T14:34:45.738Z,99337.98
2023-05-17T14:37:47.956Z,99338.04
2023-05-17T14:40:50.244Z,99339.84
2023-05-17T14:43:52.460Z,99336.58
2023-05-17T14:46:54.865Z,99337.59
2023-05-17T14:49:57.393Z,99335.23
2023-05-17T14:52:59.615Z,99331.27
2023-05-17T14:56:02.475Z,99331.97
2023-05-17T14:59:05.082Z,99329.37
2023-05-17T15:02:07.660Z,99327.63
2023-05-17T15:05:11.037Z,99328.02
2023-05-17T15:08:15.207Z,99326.66
2023-05-17T15:11:17.432Z,99326.36
2023-05-17T15:14:22.635Z,99328.91
2023-05-17T15:17:24.996Z,99327.61
2023-05-17T15:20:27.611Z,99325.11
2023-05-17T15:23:29.798Z,99324.92
2023-05-17T15:26:32.086Z,99325.80
2023-05-17T15:29:34.761Z,99323.00
2023-05-17T15:32:37.101Z,99322.47
2023-05-17T15:35:42.534Z,99321.92
2023-05-17T15:38:45.725Z,99323.73
2023-05-17T15:41:48.278Z,99325.42
2023-05-17T15:44:50.704Z,99326.35
2023-05-17T15:47:54.007Z,99325.00
2023-05-17T15:50:56.979Z,99325.00
2023-05-17T15:53:59.275Z,99323.24
2023-05-17T15:57:01.533Z,99324.83
2023-05-17T16:00:04.949Z,99325.89
2023-05-17T16:03:07.239Z,99325.89
2023-05-17T16:19:41.450Z,99330.02
2023-05-17T16:22:46.025Z,99331.54
2023-05-17T16:25:48.099Z,99329.92
2023-05-17T16:28:51.214Z,99331.20
2023-05-17T16:31:54.013Z,99330.86
2023-05-17T16:34:56.079Z,99331.05
2023-05-17T16:37:58.187Z,99332.44
2023-05-17T16:41:03.500Z,99327.83
2023-05-17T16:49:58.986Z,99323.98
2023-05-17T16:53:01.216Z,99328.23
2023-05-17T16:56:03.527Z,99327.01
2023-05-17T16:59:06.468Z,99323.36
2023-05-17T17:02:08.765Z,99326.63
2023-05-17T17:05:10.853Z,99326.95
2023-05-17T17:08:13.052Z,99328.14
2023-05-17T17:11:19.888Z,99327.88
2023-05-17T17:14:22.766Z,99327.44
2023-05-17T17:17:24.867Z,99328.45
2023-05-17T17:20:27.343Z,99331.04
2023-05-17T17:23:29.698Z,99333.38
2023-05-17T17:26:32.679Z,99334.42
2023-05-17T17:29:34.841Z,99336.17
2023-05-17T17:32:37.242Z,99334.95
2023-05-17T17:35:39.688Z,99339.58
2023-05-17T17:38:41.858Z,99337.29
2023-05-17T17:41:44.087Z,99338.03
2023-05-17T17:51:32.302Z,99345.78
2023-05-17T17:54:34.408Z,99344.38
2023-05-17T17:57:36.627Z,99339.98
2023-05-17T18:04:18.843Z,99348.89
2023-05-17T18:07:21.596Z,99345.96
2023-05-17T18:10:24.025Z,99347.30
2023-05-17T18:13:26.264Z,99348.17
2023-05-17T18:16:29.240Z,99350.73
2023-05-17T18:19:31.822Z,99351.64
2023-05-17T18:22:34.849Z,99349.64
2023-05-17T18:25:37.231Z,99351.67
2023-05-17T18:28:42.787Z,99349.84
2023-05-17T18:31:47.654Z,99355.35
2023-05-17T18:34:50.359Z,99353.73
2023-05-17T18:37:53.250Z,99353.84
2023-05-17T18:40:55.467Z,99355.86
2023-05-17T18:44:02.122Z,99355.89
2023-05-17T18:47:04.569Z,99353.77
2023-05-17T18:50:07.869Z,99357.92
2023-05-17T18:53:10.470Z,99355.84
2023-05-17T18:56:15.074Z,99357.05
2023-05-17T18:59:17.242Z,99354.08
2023-05-17T19:02:19.582Z,99352.70
2023-05-17T19:05:22.182Z,99356.06
2023-05-17T19:08:24.860Z,99357.61
2023-05-17T19:11:28.996Z,99362.59
2023-05-17T19:14:32.435Z,99361.58
2023-05-17T19:17:34.679Z,99361.15
2023-05-17T19:20:37.343Z,99361.85
2023-05-17T19:23:39.816Z,99361.61
2023-05-17T19:26:42.097Z,99363.08
2023-05-17T19:29:44.680Z,99364.12
2023-05-17T19:32:46.894Z,99368.20
2023-05-17T19:35:50.150Z,99362.27
2023-05-17T19:38:52.516Z,99364.43
2023-05-17T19:41:54.779Z,99364.94
2023-05-17T19:44:57.060Z,99365.98
2023-05-17T19:47:59.482Z,99365.15
2023-05-17T19:51:01.906Z,99372.04
2023-05-17T19:54:04.390Z,99374.67
2023-05-17T19:57:06.998Z,99373.17
2023-05-17T20:00:10.174Z,99371.30
2023-05-17T20:03:12.523Z,99371.10
2023-05-17T20:06:15.434Z,99367.11
2023-05-17T20:09:18.107Z,99366.86
2023-05-17T20:12:21.232Z,99366.40
2023-05-17T20:15:24.395Z,99366.58
2023-05-17T20:18:30.267Z,99367.30
2023-05-17T20:21:32.539Z,99368.42
2023-05-17T20:24:35.467Z,99366.98
2023-05-17T20:27:38.035Z,99371.17
2023-05-17T20:30:44.257Z,99369.17
2023-05-17T20:33:46.928Z,99373.36
2023-05-17T20:36:49.038Z,99373.06
2023-05-17T20:39:51.757Z,99374.01
2023-05-17T20:42:54.050Z,99379.39
2023-05-17T20:45:56.766Z,99384.86
2023-05-17T20:49:01.602Z,99385.83
2023-05-17T20:52:04.865Z,99383.46
2023-05-17T20:55:09.828Z,99385.69
2023-05-17T20:58:12.077Z,99383.45
2023-05-17T21:01:15.179Z,99380.99
2023-05-17T21:04:17.962Z,99379.71
2023-05-17T21:07:20.650Z,99380.30
2023-05-17T21:10:23.666Z,99383.06
2023-05-17T21:13:26.801Z,99382.31
2023-05-17T21:16:29.528Z,99382.44
2023-05-17T21:19:31.924Z,99381.41
2023-05-17T21:22:34.000Z,99383.38
2023-05-17T21:25:37.984Z,99380.55
2023-05-17T21:28:40.154Z,99385.36
2023-05-17T21:31:42.704Z,99381.17
2023-05-17T21:34:45.698Z,99380.52
2023-05-17T21:37:47.876Z,99378.48
2023-05-17T21:40:50.200Z,99384.23
2023-05-17T21:43:52.519Z,99380.66
2023-05-17T21:46:55.769Z,99380.20
2023-05-17T21:49:59.463Z,99383.95
2023-05-17T21:53:01.713Z,99384.46
2023-05-17T21:56:04.920Z,99383.90
2023-05-17T21:59:07.062Z,99386.08
2023-05-17T22:04:19.139Z,99385.08
2023-05-17T22:07:21.447Z,99385.48
2023-05-17T22:10:24.616Z,99388.00
2023-05-17T22:13:27.152Z,99386.58
2023-05-17T22:16:33.466Z,99385.23
2023-05-17T22:19:41.067Z,99384.94
2023-05-17T22:22:43.366Z,99384.31
2023-05-17T22:25:46.848Z,99385.23
2023-05-17T22:28:50.826Z,99383.89
2023-05-17T22:31:53.320Z,99389.88
2023-05-17T22:34:56.478Z,99388.67
2023-05-17T22:37:58.660Z,99387.50
2023-05-17T22:41:00.809Z,99388.94
2023-05-17T22:44:03.390Z,99389.41
2023-05-17T22:47:06.279Z,99389.80
2023-05-17T22:50:11.009Z,99391.19
2023-05-17T22:53:16.560Z,99394.78
2023-05-17T22:56:18.719Z,99392.64
2023-05-17T22:59:20.791Z,99393.79
2023-05-17T23:02:23.406Z,99396.16
2023-05-17T23:05:25.747Z,99394.29
2023-05-17T23:08:30.365Z,99395.71
2023-05-17T23:11:34.971Z,99397.34
2023-05-17T23:14:37.447Z,99399.77
2023-05-17T23:17:40.153Z,99400.64
2023-05-17T23:20:43.460Z,99402.60
2023-05-17T23:23:45.631Z,99406.81
2023-05-17T23:26:47.808Z,99408.48
2023-05-17T23:29:49.950Z,99405.41
2023-05-17T23:32:53.047Z,99407.66
2023-05-17T23:35:56.054Z,99406.09
2023-05-17T23:38:58.253Z,99407.23
2023-05-17T23:42:00.894Z,99406.92
2023-05-17T23:45:04.119Z,99406.88
2023-05-17T23:48:10.183Z,99407.38
2023-05-17T23:51:12.398Z,99407.31
2023-05-17T23:54:16.457Z,99406.14
2023-05-17T23:57:18.735Z,99406.60
